createdAt,value
2022-10-12T00:00:50.841Z,8.00
2022-10-12T00:03:19.850Z,8.00
2022-10-12T00:05:51.394Z,8.00
2022-10-12T00:08:19.464Z,8.00
2022-10-12T00:10:47.509Z,8.00
2022-10-12T00:13:15.563Z,8.00
2022-10-12T00:15:45.002Z,7.90
2022-10-12T00:18:13.051Z,8.00
2022-10-12T00:20:41.192Z,8.00
2022-10-12T00:23:09.319Z,8.00
2022-10-12T00:25:39.403Z,8.00
2022-10-12T00:28:08.113Z,7.90
2022-10-12T00:30:40.312Z,7.90
2022-10-12T00:33:09.948Z,7.90
2022-10-12T00:35:38.021Z,7.80
2022-10-12T00:38:06.158Z,7.80
2022-10-12T00:40:34.224Z,7.80
2022-10-12T00:43:02.267Z,7.80
2022-10-12T00:45:30.715Z,7.80
2022-10-12T00:48:01.973Z,7.90
2022-10-12T00:50:34.109Z,7.90
2022-10-12T00:53:05.066Z,7.80
2022-10-12T00:55:38.303Z,7.80
2022-10-12T00:58:08.297Z,7.80
2022-10-12T01:00:37.975Z,7.80
2022-10-12T01:03:09.016Z,7.80
2022-10-12T01:05:41.523Z,7.90
2022-10-12T01:08:09.768Z,7.80
2022-10-12T01:10:37.929Z,7.80
2022-10-12T01:13:06.788Z,7.80
2022-10-12T01:15:37.342Z,7.80
2022-10-12T01:18:13.223Z,7.80
2022-10-12T01:20:54.628Z,7.70
2022-10-12T01:23:57.237Z,7.70
2022-10-12T01:26:56.606Z,7.80
2022-10-12T01:29:52.381Z,7.90
2022-10-12T01:32:23.413Z,7.80
2022-10-12T01:34:59.175Z,7.80
2022-10-12T01:37:39.076Z,7.80
2022-10-12T01:40:13.327Z,7.70
2022-10-12T01:42:44.329Z,7.80
2022-10-12T01:45:15.447Z,7.90
2022-10-12T01:47:48.384Z,7.90
2022-10-12T01:50:18.824Z,8.00
2022-10-12T01:52:57.989Z,8.10
2022-10-12T01:55:36.905Z,8.10
2022-10-12T01:58:20.241Z,8.10
2022-10-12T02:00:58.896Z,8.00
2022-10-12T02:03:34.928Z,8.10
2022-10-12T02:06:05.567Z,8.10
2022-10-12T02:08:38.453Z,8.10
2022-10-12T02:11:10.169Z,8.10
2022-10-12T02:13:43.057Z,8.10
2022-10-12T02:16:15.732Z,8.20
2022-10-12T02:18:46.344Z,8.20
2022-10-12T02:21:17.515Z,8.10
2022-10-12T02:23:46.422Z,8.10
2022-10-12T02:26:16.011Z,8.10
2022-10-12T02:28:45.683Z,8.00
2022-10-12T02:31:24.603Z,8.00
2022-10-12T02:34:01.388Z,7.90
2022-10-12T02:36:37.504Z,7.90
2022-10-12T02:39:10.791Z,7.90
2022-10-12T02:41:44.657Z,7.80
2022-10-12T02:44:17.051Z,7.80
2022-10-12T02:46:48.364Z,7.80
2022-10-12T02:49:18.326Z,7.80
2022-10-12T02:51:47.301Z,7.80
2022-10-12T02:54:16.290Z,7.70
2022-10-12T02:56:45.819Z,7.70
2022-10-12T02:59:14.666Z,7.70
2022-10-12T03:01:43.561Z,7.70
2022-10-12T03:04:13.108Z,7.70
2022-10-12T03:06:42.513Z,7.60
2022-10-12T03:09:10.591Z,7.60
2022-10-12T03:11:43.651Z,7.70
2022-10-12T03:14:12.613Z,7.70
2022-10-12T03:16:40.724Z,7.70
2022-10-12T03:19:08.903Z,7.70
2022-10-12T03:21:38.378Z,7.60
2022-10-12T03:24:06.875Z,7.60
2022-10-12T03:26:35.412Z,7.60
2022-10-12T03:29:03.501Z,7.60
2022-10-12T03:31:31.658Z,7.50
2022-10-12T03:33:59.707Z,7.50
2022-10-12T03:36:27.833Z,7.50
2022-10-12T03:38:57.354Z,7.50
2022-10-12T03:41:25.484Z,7.50
2022-10-12T03:43:53.523Z,7.40
2022-10-12T03:46:21.617Z,7.40
2022-10-12T03:48:49.661Z,7.30
2022-10-12T03:51:17.776Z,7.30
2022-10-12T03:53:45.993Z,7.30
2022-10-12T03:56:15.592Z,7.30
2022-10-12T03:58:43.799Z,7.30
2022-10-12T04:01:11.899Z,7.20
2022-10-12T04:03:39.945Z,7.10
2022-10-12T04:06:09.251Z,7.10
2022-10-12T04:08:39.871Z,7.20
2022-10-12T04:11:08.242Z,7.20
2022-10-12T04:13:37.725Z,7.10
2022-10-12T04:16:07.908Z,7.10
2022-10-12T04:18:36.228Z,7.10
2022-10-12T04:21:07.375Z,7.00
2022-10-12T04:23:35.463Z,7.00
2022-10-12T04:26:03.557Z,7.00
2022-10-12T04:28:31.674Z,6.90
2022-10-12T04:31:01.328Z,6.90
2022-10-12T04:33:29.445Z,6.90
2022-10-12T04:35:57.642Z,6.80
2022-10-12T04:38:25.715Z,6.80
2022-10-12T04:40:53.847Z,6.80
2022-10-12T04:43:21.885Z,6.80
2022-10-12T04:45:56.472Z,6.80
2022-10-12T04:48:26.770Z,6.70
2022-10-12T04:50:55.010Z,6.60
2022-10-12T04:53:23.223Z,6.60
2022-10-12T04:55:51.303Z,6.60
2022-10-12T04:58:19.398Z,6.60
2022-10-12T05:00:48.383Z,6.60
2022-10-12T05:03:16.594Z,6.60
2022-10-12T05:05:47.132Z,6.60
2022-10-12T05:08:15.187Z,6.50
2022-10-12T05:10:43.466Z,6.60
2022-10-12T05:13:11.607Z,6.60
2022-10-12T05:15:39.733Z,6.60
2022-10-12T05:18:07.833Z,6.60
2022-10-12T05:20:36.350Z,6.60
2022-10-12T05:23:05.926Z,6.60
2022-10-12T05:25:35.292Z,6.60
2022-10-12T05:28:03.488Z,6.60
2022-10-12T05:30:32.569Z,6.60
2022-10-12T05:33:00.715Z,6.70
2022-10-12T05:35:29.026Z,6.70
2022-10-12T05:37:57.601Z,6.70
2022-10-12T05:40:27.049Z,6.80
2022-10-12T05:42:55.077Z,6.70
2022-10-12T05:45:23.245Z,6.70
2022-10-12T05:47:51.512Z,6.60
2022-10-12T05:50:19.635Z,6.60
2022-10-12T05:52:47.721Z,6.60
2022-10-12T05:55:15.980Z,6.60
2022-10-12T05:57:50.985Z,6.60
2022-10-12T06:00:20.188Z,6.60
2022-10-12T06:02:48.301Z,6.70
2022-10-12T06:05:16.620Z,6.60
2022-10-12T06:07:45.020Z,6.60
2022-10-12T06:10:13.181Z,6.60
2022-10-12T06:12:41.357Z,6.60
2022-10-12T06:15:11.876Z,6.60
2022-10-12T06:17:39.948Z,6.70
2022-10-12T06:20:09.331Z,6.70
2022-10-12T06:22:37.563Z,6.80
2022-10-12T06:25:06.734Z,7.00
2022-10-12T06:27:35.192Z,7.10
2022-10-12T06:30:03.475Z,7.20
2022-10-12T06:32:33.678Z,7.20
2022-10-12T06:35:01.877Z,7.20
2022-10-12T06:37:49.019Z,7.20
2022-10-12T06:40:18.567Z,7.10
2022-10-12T06:42:46.816Z,7.20
2022-10-12T06:45:15.037Z,7.20
2022-10-12T06:47:44.767Z,7.20
2022-10-12T06:50:13.046Z,7.20
2022-10-12T06:52:41.315Z,7.20
2022-10-12T06:55:10.199Z,7.30
2022-10-12T06:57:38.489Z,7.30
2022-10-12T07:00:08.838Z,7.30
2022-10-12T07:02:37.404Z,7.30
2022-10-12T07:05:08.344Z,7.40
2022-10-12T07:07:37.828Z,7.50
2022-10-12T07:10:06.975Z,7.50
2022-10-12T07:12:37.041Z,7.40
2022-10-12T07:15:06.410Z,7.50
2022-10-12T07:17:34.435Z,7.50
2022-10-12T07:20:02.739Z,7.60
2022-10-12T07:22:32.196Z,7.60
2022-10-12T07:25:00.597Z,7.60
2022-10-12T07:27:28.849Z,7.60
2022-10-12T07:29:57.311Z,7.60
2022-10-12T07:32:25.487Z,7.70
2022-10-12T07:34:53.595Z,7.90
2022-10-12T07:37:21.688Z,8.10
2022-10-12T07:39:57.031Z,8.30
2022-10-12T07:42:25.258Z,8.50
2022-10-12T07:44:53.396Z,8.80
2022-10-12T07:47:21.455Z,9.10
2022-10-12T07:49:49.581Z,9.20
2022-10-12T07:52:17.715Z,9.30
2022-10-12T07:54:45.961Z,9.60
2022-10-12T07:57:15.409Z,9.70
2022-10-12T07:59:43.445Z,9.60
2022-10-12T08:02:12.978Z,9.60
2022-10-12T08:04:40.940Z,9.60
2022-10-12T08:07:09.064Z,9.60
2022-10-12T08:09:37.338Z,9.50
2022-10-12T08:12:05.798Z,9.50
2022-10-12T08:14:35.110Z,9.50
2022-10-12T08:17:03.121Z,9.60
2022-10-12T08:19:35.205Z,9.60
2022-10-12T08:22:05.764Z,9.70
2022-10-12T08:24:33.693Z,9.80
2022-10-12T08:27:01.820Z,10.00
2022-10-12T08:29:29.832Z,10.10
2022-10-12T08:31:59.099Z,10.00
2022-10-12T08:34:27.172Z,10.20
2022-10-12T08:36:55.129Z,10.30
2022-10-12T08:39:23.233Z,10.50
2022-10-12T08:42:02.360Z,10.80
2022-10-12T08:44:44.160Z,11.10
2022-10-12T08:47:18.972Z,11.10
2022-10-12T08:49:50.057Z,11.10
2022-10-12T08:52:28.662Z,11.20
2022-10-12T08:54:58.629Z,11.30
2022-10-12T08:57:26.535Z,11.50
2022-10-12T08:59:54.572Z,11.60
2022-10-12T09:02:41.274Z,11.60
2022-10-12T09:05:12.009Z,11.80
2022-10-12T09:07:43.431Z,11.80
2022-10-12T09:10:29.488Z,12.00
2022-10-12T09:13:07.621Z,12.10
2022-10-12T09:15:40.034Z,12.20
2022-10-12T09:18:19.375Z,12.40
2022-10-12T09:20:50.186Z,12.60
2022-10-12T09:23:26.434Z,12.60
2022-10-12T09:25:58.113Z,12.60
2022-10-12T09:28:30.643Z,12.80
2022-10-12T09:31:12.502Z,12.90
2022-10-12T09:33:46.405Z,12.80
2022-10-12T09:36:20.073Z,13.00
2022-10-12T09:38:48.571Z,13.20
2022-10-12T09:41:21.674Z,13.30
2022-10-12T09:43:52.228Z,13.10
2022-10-12T09:46:25.356Z,12.80
2022-10-12T09:49:01.559Z,13.00
2022-10-12T09:51:31.047Z,13.10
2022-10-12T09:54:03.478Z,13.00
2022-10-12T09:56:39.808Z,13.00
2022-10-12T09:59:19.097Z,13.00
2022-10-12T10:01:59.074Z,13.40
2022-10-12T10:04:29.890Z,13.60
2022-10-12T10:07:14.988Z,13.90
2022-10-12T10:09:43.181Z,14.20
2022-10-12T10:12:21.899Z,14.40
2022-10-12T10:14:50.788Z,14.30
2022-10-12T10:17:25.021Z,14.60
2022-10-12T10:19:56.090Z,14.60
2022-10-12T10:22:24.859Z,14.40
2022-10-12T10:24:59.126Z,14.20
2022-10-12T10:27:37.119Z,14.40
2022-10-12T10:30:32.493Z,14.60
2022-10-12T10:33:14.841Z,15.10
2022-10-12T10:36:05.214Z,15.20
2022-10-12T10:38:46.207Z,15.40
2022-10-12T10:41:19.742Z,15.60
2022-10-12T10:43:49.494Z,15.80
2022-10-12T10:46:23.743Z,15.80
2022-10-12T10:48:56.531Z,15.80
2022-10-12T10:51:42.538Z,15.80
2022-10-12T10:54:28.712Z,16.00
2022-10-12T10:57:02.145Z,16.10
2022-10-12T10:59:48.698Z,16.10
2022-10-12T11:02:26.046Z,16.20
2022-10-12T11:04:59.272Z,16.30
2022-10-12T11:07:33.720Z,16.30
2022-10-12T11:10:05.374Z,16.30
2022-10-12T11:12:37.425Z,16.00
2022-10-12T11:15:13.020Z,16.10
2022-10-12T11:17:46.968Z,16.30
2022-10-12T11:20:32.114Z,16.50
2022-10-12T11:23:06.040Z,16.80
2022-10-12T11:25:43.493Z,16.60
2022-10-12T11:28:17.248Z,16.90
2022-10-12T11:30:49.488Z,17.00
2022-10-12T11:33:23.299Z,17.00
2022-10-12T11:35:52.779Z,17.00
2022-10-12T11:38:28.274Z,16.90
2022-10-12T11:41:19.122Z,16.70
2022-10-12T11:43:56.375Z,16.70
2022-10-12T11:46:32.989Z,16.70
2022-10-12T11:49:07.370Z,16.70
2022-10-12T11:51:35.712Z,16.40
2022-10-12T11:54:14.256Z,16.30
2022-10-12T11:56:47.349Z,16.20
2022-10-12T11:59:20.573Z,15.90
2022-10-12T12:02:04.569Z,15.80
2022-10-12T12:04:43.344Z,16.00
2022-10-12T12:07:43.418Z,16.00
2022-10-12T12:11:03.989Z,16.10
2022-10-12T12:13:34.059Z,15.90
2022-10-12T12:16:32.988Z,15.90
2022-10-12T12:19:40.364Z,15.90
2022-10-12T12:22:14.006Z,16.00
2022-10-12T12:24:52.069Z,15.90
2022-10-12T12:27:30.269Z,15.90
2022-10-12T12:30:01.354Z,15.90
2022-10-12T12:32:44.155Z,16.00
2022-10-12T12:35:25.088Z,15.90
2022-10-12T12:38:03.495Z,15.90
2022-10-12T12:40:32.095Z,16.00
2022-10-12T12:43:23.216Z,15.90
2022-10-12T12:45:58.763Z,16.10
2022-10-12T12:49:04.947Z,16.20
2022-10-12T12:51:44.540Z,16.00
2022-10-12T12:54:19.535Z,16.00
2022-10-12T12:57:01.696Z,16.00
2022-10-12T12:59:55.361Z,15.90
2022-10-12T13:02:49.345Z,15.90
2022-10-12T13:05:57.561Z,15.90
2022-10-12T13:08:34.829Z,15.90
2022-10-12T13:11:24.205Z,16.00
2022-10-12T13:14:02.744Z,15.90
2022-10-12T13:19:54.377Z,16.00
2022-10-12T13:22:28.598Z,16.00
2022-10-12T13:25:02.744Z,16.00
2022-10-12T13:27:35.672Z,16.10
2022-10-12T13:30:13.289Z,16.20
2022-10-12T13:32:47.036Z,16.20
2022-10-12T13:35:33.411Z,16.20
2022-10-12T13:38:03.602Z,16.20
2022-10-12T13:40:37.264Z,16.20
2022-10-12T13:43:28.258Z,16.40
2022-10-12T13:45:56.418Z,16.70
2022-10-12T13:48:54.036Z,16.70
2022-10-12T13:51:25.145Z,16.60
2022-10-12T13:53:53.580Z,16.60
2022-10-12T13:56:24.691Z,16.50
2022-10-12T13:58:58.183Z,16.40
2022-10-12T14:01:26.293Z,16.40
2022-10-12T14:04:02.751Z,16.40
2022-10-12T14:06:34.449Z,16.40
2022-10-12T14:09:08.845Z,16.40
2022-10-12T14:11:37.850Z,16.50
2022-10-12T14:14:06.460Z,16.60
2022-10-12T14:16:34.571Z,16.50
2022-10-12T14:19:21.380Z,16.50
2022-10-12T14:21:51.169Z,16.40
2022-10-12T14:24:20.511Z,16.30
2022-10-12T14:26:55.684Z,16.40
2022-10-12T14:29:35.957Z,16.30
2022-10-12T14:32:05.819Z,16.30
2022-10-12T14:34:43.833Z,16.20
2022-10-12T14:37:31.965Z,16.10
2022-10-12T14:40:00.878Z,16.00
2022-10-12T14:42:34.536Z,16.00
2022-10-12T14:45:04.854Z,15.90
2022-10-12T14:47:35.720Z,15.90
2022-10-12T14:50:08.541Z,15.80
2022-10-12T14:52:43.347Z,15.80
2022-10-12T14:55:16.722Z,15.70
2022-10-12T14:57:46.450Z,15.70
2022-10-12T15:00:16.198Z,15.70
2022-10-12T15:02:45.057Z,15.70
2022-10-12T15:05:15.348Z,15.70
2022-10-12T15:07:46.902Z,15.70
2022-10-12T15:10:15.111Z,15.70
2022-10-12T15:12:43.763Z,15.60
2022-10-12T15:15:28.989Z,15.60
2022-10-12T15:17:57.933Z,15.60
2022-10-12T15:20:26.455Z,15.60
2022-10-12T15:22:55.960Z,15.50
2022-10-12T15:25:26.978Z,15.50
2022-10-12T15:27:55.161Z,15.50
2022-10-12T15:30:23.274Z,15.60
2022-10-12T15:32:51.380Z,15.60
2022-10-12T15:35:22.457Z,15.60
2022-10-12T15:37:51.537Z,15.60
2022-10-12T15:40:21.917Z,15.60
2022-10-12T15:42:50.468Z,15.60
2022-10-12T15:45:21.797Z,15.50
2022-10-12T15:47:50.769Z,15.40
2022-10-12T15:50:20.908Z,15.30
2022-10-12T15:52:49.371Z,15.20
2022-10-12T15:55:21.567Z,15.10
2022-10-12T15:57:50.126Z,15.00
2022-10-12T16:00:20.036Z,15.00
2022-10-12T16:02:48.292Z,15.00
2022-10-12T16:05:20.094Z,14.90
2022-10-12T16:07:48.576Z,14.80
2022-10-12T16:10:18.052Z,14.70
2022-10-12T16:12:49.897Z,14.60
2022-10-12T16:15:19.717Z,14.50
2022-10-12T16:17:47.875Z,14.50
2022-10-12T16:20:15.999Z,14.40
2022-10-12T16:22:44.811Z,14.40
2022-10-12T16:25:14.216Z,14.30
2022-10-12T16:27:42.610Z,14.20
2022-10-12T16:30:13.614Z,14.20
2022-10-12T16:32:41.955Z,14.10
2022-10-12T16:35:11.236Z,14.10
2022-10-12T16:37:39.570Z,14.10
2022-10-12T16:40:09.628Z,14.00
2022-10-12T16:42:37.984Z,14.00
2022-10-12T16:45:06.961Z,13.90
2022-10-12T16:47:40.479Z,13.80
2022-10-12T16:50:11.309Z,13.70
2022-10-12T16:52:39.695Z,13.70
2022-10-12T16:55:08.761Z,13.70
2022-10-12T16:57:37.884Z,13.50
2022-10-12T17:00:07.219Z,13.50
2022-10-12T17:02:36.700Z,13.40
2022-10-12T17:05:05.158Z,13.30
2022-10-12T17:07:33.368Z,13.20
2022-10-12T17:10:01.444Z,13.10
2022-10-12T17:12:29.581Z,13.00
2022-10-12T17:14:57.907Z,12.90
2022-10-12T17:17:26.004Z,12.80
2022-10-12T17:19:55.438Z,12.70
2022-10-12T17:22:23.798Z,12.70
2022-10-12T17:24:51.936Z,12.60
2022-10-12T17:27:20.103Z,12.60
2022-10-12T17:29:48.309Z,12.50
2022-10-12T17:32:16.547Z,12.50
2022-10-12T17:34:45.525Z,12.50
2022-10-12T17:37:15.363Z,12.50
2022-10-12T17:39:45.521Z,12.50
2022-10-12T17:42:14.110Z,12.50
2022-10-12T17:44:42.528Z,12.40
2022-10-12T17:47:11.044Z,12.40
2022-10-12T17:49:39.591Z,12.30
2022-10-12T17:52:08.361Z,12.30
2022-10-12T17:54:39.243Z,12.30
2022-10-12T17:57:08.003Z,12.20
2022-10-12T17:59:36.627Z,12.20
2022-10-12T18:02:09.310Z,12.20
2022-10-12T18:04:38.164Z,12.10
2022-10-12T18:07:06.938Z,12.00
2022-10-12T18:09:35.630Z,12.00
2022-10-12T18:12:05.463Z,11.90
2022-10-12T18:14:33.879Z,11.90
2022-10-12T18:17:02.510Z,11.90
2022-10-12T18:19:30.939Z,11.90
2022-10-12T18:21:59.308Z,11.90
2022-10-12T18:24:27.718Z,11.90
2022-10-12T18:26:56.181Z,11.90
2022-10-12T18:29:26.102Z,11.90
2022-10-12T18:31:54.729Z,11.90
2022-10-12T18:34:23.173Z,11.90
2022-10-12T18:36:52.823Z,11.90
2022-10-12T18:39:21.643Z,11.90
2022-10-12T18:41:52.179Z,12.00
2022-10-12T18:44:22.226Z,12.00
2022-10-12T18:46:52.069Z,12.00
2022-10-12T18:49:20.539Z,12.00
2022-10-12T18:51:51.309Z,12.00
2022-10-12T18:54:20.115Z,12.10
2022-10-12T18:56:48.535Z,12.10
2022-10-12T18:59:18.056Z,12.10
2022-10-12T19:01:46.678Z,12.10
2022-10-12T19:04:17.137Z,12.10
2022-10-12T19:06:45.575Z,12.10
2022-10-12T19:09:14.746Z,12.10
2022-10-12T19:11:43.632Z,12.10
2022-10-12T19:14:14.981Z,12.10
2022-10-12T19:16:43.957Z,12.00
2022-10-12T19:19:20.796Z,12.00
2022-10-12T19:21:49.843Z,12.00
2022-10-12T19:24:18.973Z,12.00
2022-10-12T19:26:47.861Z,11.90
2022-10-12T19:29:16.526Z,11.90
2022-10-12T19:31:48.150Z,11.90
2022-10-12T19:34:20.091Z,11.90
2022-10-12T19:36:48.763Z,11.90
2022-10-12T19:39:19.247Z,11.80
2022-10-12T19:41:47.956Z,11.80
2022-10-12T19:44:16.740Z,11.70
2022-10-12T19:46:47.707Z,11.70
2022-10-12T19:49:19.017Z,11.60
2022-10-12T19:51:47.617Z,11.60
2022-10-12T19:54:16.427Z,11.50
2022-10-12T19:56:44.573Z,11.50
2022-10-12T19:59:12.745Z,11.40
2022-10-12T20:01:42.347Z,11.40
2022-10-12T20:04:12.051Z,11.40
2022-10-12T20:06:41.643Z,11.30
2022-10-12T20:09:11.907Z,11.30
2022-10-12T20:11:40.584Z,11.20
2022-10-12T20:14:09.462Z,11.20
2022-10-12T20:16:38.494Z,11.10
2022-10-12T20:19:08.126Z,11.10
2022-10-12T20:21:37.538Z,11.10
2022-10-12T20:24:09.970Z,11.00
2022-10-12T20:26:38.611Z,11.10
2022-10-12T20:29:08.598Z,11.00
2022-10-12T20:31:37.009Z,11.00
2022-10-12T20:34:05.464Z,10.90
2022-10-12T20:36:33.856Z,10.90
2022-10-12T20:39:02.561Z,10.90
2022-10-12T20:41:32.687Z,11.00
2022-10-12T20:44:02.049Z,11.00
2022-10-12T20:46:31.054Z,11.00
2022-10-12T20:49:01.478Z,10.90
2022-10-12T20:51:31.789Z,11.00
2022-10-12T20:54:01.568Z,11.00
2022-10-12T20:56:31.779Z,10.90
2022-10-12T20:59:00.393Z,11.00
2022-10-12T21:01:28.739Z,10.90
2022-10-12T21:03:57.063Z,10.90
2022-10-12T21:06:26.841Z,11.00
2022-10-12T21:08:56.939Z,10.90
2022-10-12T21:11:25.869Z,10.90
2022-10-12T21:13:56.063Z,10.90
2022-10-12T21:16:24.512Z,10.90
2022-10-12T21:18:55.246Z,10.90
2022-10-12T21:21:24.048Z,10.90
2022-10-12T21:23:54.952Z,10.90
2022-10-12T21:26:24.874Z,10.90
2022-10-12T21:28:53.250Z,10.90
2022-10-12T21:31:26.062Z,10.90
2022-10-12T21:33:56.430Z,10.90
2022-10-12T21:36:26.480Z,10.90
2022-10-12T21:38:55.172Z,10.90
2022-10-12T21:41:24.786Z,10.90
2022-10-12T21:43:53.960Z,11.00
2022-10-12T21:46:24.980Z,10.90
2022-10-12T21:48:53.270Z,10.90
2022-10-12T21:51:22.916Z,10.90
2022-10-12T21:53:51.895Z,10.90
2022-10-12T21:56:23.209Z,10.90
2022-10-12T21:58:52.643Z,10.80
2022-10-12T22:01:24.364Z,10.80
2022-10-12T22:03:54.791Z,10.80
2022-10-12T22:06:24.367Z,10.80
2022-10-12T22:08:54.427Z,10.80
2022-10-12T22:11:22.791Z,10.80
2022-10-12T22:13:51.330Z,10.80
2022-10-12T22:16:19.839Z,10.80
2022-10-12T22:18:49.413Z,10.80
2022-10-12T22:21:19.266Z,10.80
2022-10-12T22:23:47.417Z,10.80
2022-10-12T22:26:17.365Z,10.80
2022-10-12T22:28:45.968Z,10.80
2022-10-12T22:31:17.313Z,10.90
2022-10-12T22:33:45.641Z,10.90
2022-10-12T22:36:15.874Z,10.90
2022-10-12T22:38:44.488Z,11.00
2022-10-12T22:41:14.300Z,11.00
2022-10-12T22:43:43.022Z,11.00
2022-10-12T22:46:11.670Z,11.00
2022-10-12T22:48:40.114Z,11.00
2022-10-12T22:51:08.862Z,11.10
2022-10-12T22:53:38.299Z,11.10
2022-10-12T22:56:08.431Z,11.10
2022-10-12T22:58:36.960Z,11.10
2022-10-12T23:01:07.621Z,11.20
2022-10-12T23:03:36.443Z,11.20
2022-10-12T23:06:05.569Z,11.20
2022-10-12T23:08:34.001Z,11.20
2022-10-12T23:11:08.573Z,11.20
2022-10-12T23:13:37.833Z,11.20
2022-10-12T23:16:07.842Z,11.20
2022-10-12T23:18:36.092Z,11.20
2022-10-12T23:21:06.525Z,11.20
2022-10-12T23:23:34.970Z,11.20
2022-10-12T23:26:05.088Z,11.20
2022-10-12T23:28:34.953Z,11.20
2022-10-12T23:31:04.738Z,11.20
2022-10-12T23:33:33.189Z,11.20
2022-10-12T23:36:03.218Z,11.20
2022-10-12T23:38:32.803Z,11.20
2022-10-12T23:41:01.121Z,11.20
2022-10-12T23:43:29.724Z,11.20
2022-10-12T23:45:59.193Z,11.20
2022-10-12T23:48:28.687Z,11.20
2022-10-12T23:50:57.188Z,11.20
2022-10-12T23:53:26.379Z,11.20
2022-10-12T23:55:54.865Z,11.20
2022-10-12T23:58:23.056Z,11.20
